createdAt,value
2023-01-23T00:00:40.499Z,-0.04
2023-01-23T00:03:07.292Z,-0.04
2023-01-23T00:05:33.890Z,-0.04
2023-01-23T00:08:00.564Z,-0.14
2023-01-23T00:10:27.254Z,-0.15
2023-01-23T00:12:54.485Z,-0.12
2023-01-23T00:15:21.189Z,-0.10
2023-01-23T00:17:48.450Z,-0.15
2023-01-23T00:20:15.455Z,-0.08
2023-01-23T00:22:42.191Z,-0.07
2023-01-23T00:25:09.004Z,-0.04
2023-01-23T00:27:35.728Z,-0.04
2023-01-23T00:30:02.497Z,-0.06
2023-01-23T00:32:29.145Z,-0.02
2023-01-23T00:34:55.830Z,0.03
2023-01-23T00:37:22.490Z,0.06
2023-01-23T00:39:50.995Z,0.07
2023-01-23T00:42:18.109Z,0.09
2023-01-23T00:44:44.795Z,0.08
2023-01-23T00:47:11.409Z,0.08
2023-01-23T00:49:38.013Z,0.09
2023-01-23T00:52:04.769Z,0.05
2023-01-23T00:54:31.454Z,0.01
2023-01-23T00:56:58.086Z,0.06
2023-01-23T00:59:24.870Z,0.05
2023-01-23T01:01:51.566Z,0.03
2023-01-23T01:04:18.263Z,0.09
2023-01-23T01:06:44.853Z,0.05
2023-01-23T01:09:12.073Z,0.00
2023-01-23T01:11:38.717Z,-0.04
2023-01-23T01:14:05.538Z,0.03
2023-01-23T01:16:32.397Z,-0.02
2023-01-23T01:18:59.102Z,0.04
2023-01-23T01:21:25.734Z,0.06
2023-01-23T01:23:52.655Z,0.07
2023-01-23T01:26:19.425Z,0.02
2023-01-23T01:28:46.079Z,0.01
2023-01-23T01:31:15.119Z,-0.03
2023-01-23T01:33:43.172Z,-0.02
2023-01-23T01:36:11.505Z,-0.07
2023-01-23T01:38:38.576Z,-0.09
2023-01-23T01:41:06.165Z,-0.07
2023-01-23T01:43:34.462Z,-0.10
2023-01-23T01:46:04.066Z,-0.07
2023-01-23T01:48:40.993Z,-0.08
2023-01-23T01:51:16.861Z,0.00
2023-01-23T01:53:47.072Z,-0.04
2023-01-23T01:56:14.861Z,-0.03
2023-01-23T01:58:44.726Z,-0.05
2023-01-23T02:01:11.672Z,-0.05
2023-01-23T02:03:39.332Z,0.00
2023-01-23T02:06:06.996Z,0.04
2023-01-23T02:09:02.007Z,0.02
2023-01-23T02:11:29.035Z,-0.02
2023-01-23T02:13:57.139Z,-0.05
2023-01-23T02:16:29.673Z,0.00
2023-01-23T02:19:07.273Z,-0.01
2023-01-23T02:21:37.150Z,0.02
2023-01-23T02:24:23.197Z,-0.05
2023-01-23T02:26:50.143Z,-0.09
2023-01-23T02:29:19.272Z,-0.04
2023-01-23T02:31:47.195Z,-0.07
2023-01-23T02:34:14.722Z,-0.04
2023-01-23T02:36:46.340Z,-0.06
2023-01-23T02:39:16.203Z,-0.08
2023-01-23T02:41:49.026Z,-0.06
2023-01-23T02:44:25.349Z,-0.09
2023-01-23T02:46:52.981Z,-0.10
2023-01-23T02:49:21.061Z,-0.11
2023-01-23T02:51:49.266Z,-0.09
2023-01-23T02:54:17.036Z,-0.12
2023-01-23T02:56:43.806Z,-0.05
2023-01-23T02:59:29.340Z,-0.07
2023-01-23T03:01:56.303Z,-0.10
2023-01-23T03:04:23.276Z,-0.08
2023-01-23T03:06:50.023Z,-0.10
2023-01-23T03:09:17.690Z,-0.16
2023-01-23T03:11:45.794Z,-0.12
2023-01-23T03:14:20.090Z,-0.09
2023-01-23T03:16:51.431Z,-0.11
2023-01-23T03:19:20.167Z,-0.14
2023-01-23T03:21:47.218Z,-0.08
2023-01-23T03:24:15.430Z,-0.09
2023-01-23T03:26:43.648Z,-0.11
2023-01-23T03:29:41.188Z,-0.11
2023-01-23T03:32:09.081Z,-0.15
2023-01-23T03:34:35.875Z,-0.10
2023-01-23T03:37:03.481Z,-0.15
2023-01-23T03:39:49.162Z,-0.12
2023-01-23T03:42:15.803Z,-0.10
2023-01-23T03:44:42.508Z,-0.13
2023-01-23T03:47:09.770Z,-0.16
2023-01-23T03:49:36.494Z,-0.10
2023-01-23T03:52:03.997Z,-0.07
2023-01-23T03:54:30.651Z,-0.09
2023-01-23T03:56:57.690Z,-0.13
2023-01-23T03:59:24.347Z,-0.18
2023-01-23T04:01:51.018Z,-0.08
2023-01-23T04:04:17.595Z,-0.17
2023-01-23T04:06:44.258Z,-0.11
2023-01-23T04:09:10.853Z,-0.17
2023-01-23T04:11:37.599Z,-0.15
2023-01-23T04:14:04.261Z,-0.12
2023-01-23T04:16:30.952Z,-0.09
2023-01-23T04:18:57.739Z,-0.11
2023-01-23T04:21:24.450Z,-0.19
2023-01-23T04:23:51.131Z,-0.15
2023-01-23T04:26:17.753Z,-0.14
2023-01-23T04:28:44.359Z,-0.11
2023-01-23T04:31:11.104Z,-0.15
2023-01-23T04:33:37.809Z,-0.16
2023-01-23T04:36:06.703Z,-0.16
2023-01-23T04:38:34.754Z,-0.22
2023-01-23T04:41:01.615Z,-0.18
2023-01-23T04:43:28.328Z,-0.17
2023-01-23T04:45:56.344Z,-0.17
2023-01-23T04:48:23.815Z,-0.19
2023-01-23T04:50:51.398Z,-0.17
2023-01-23T04:53:18.221Z,-0.16
2023-01-23T04:55:48.126Z,-0.21
2023-01-23T04:58:15.470Z,-0.23
2023-01-23T05:00:42.050Z,-0.29
2023-01-23T05:03:08.630Z,-0.26
2023-01-23T05:05:35.227Z,-0.25
2023-01-23T05:08:02.047Z,-0.22
2023-01-23T05:10:28.636Z,-0.24
2023-01-23T05:12:55.377Z,-0.27
2023-01-23T05:15:22.033Z,-0.30
2023-01-23T05:17:49.322Z,-0.25
2023-01-23T05:20:16.137Z,-0.23
2023-01-23T05:22:54.986Z,-0.27
2023-01-23T05:25:23.241Z,-0.28
2023-01-23T05:27:50.389Z,-0.23
2023-01-23T05:30:18.419Z,-0.27
2023-01-23T05:32:45.432Z,-0.31
2023-01-23T05:35:12.393Z,-0.29
2023-01-23T05:37:39.018Z,-0.31
2023-01-23T05:40:08.761Z,-0.30
2023-01-23T05:42:35.767Z,-0.26
2023-01-23T05:45:02.419Z,-0.22
2023-01-23T05:47:29.246Z,-0.16
2023-01-23T05:49:55.905Z,-0.26
2023-01-23T05:52:22.509Z,-0.22
2023-01-23T05:54:50.449Z,-0.24
2023-01-23T05:57:17.121Z,-0.18
2023-01-23T05:59:44.503Z,-0.23
2023-01-23T06:02:11.530Z,-0.20
2023-01-23T06:04:38.206Z,-0.18
2023-01-23T06:07:04.953Z,-0.11
2023-01-23T06:09:31.699Z,-0.15
2023-01-23T06:11:58.309Z,-0.19
2023-01-23T06:14:25.097Z,-0.22
2023-01-23T06:16:51.741Z,-0.21
2023-01-23T06:19:18.353Z,-0.17
2023-01-23T06:21:44.950Z,-0.19
2023-01-23T06:24:11.525Z,-0.21
2023-01-23T06:26:38.139Z,-0.25
2023-01-23T06:29:04.876Z,-0.27
2023-01-23T06:31:32.755Z,-0.25
2023-01-23T06:33:59.993Z,-0.25
2023-01-23T06:36:27.197Z,-0.27
2023-01-23T06:38:53.876Z,-0.27
2023-01-23T06:41:20.996Z,-0.29
2023-01-23T06:43:47.889Z,-0.29
2023-01-23T06:46:16.470Z,-0.33
2023-01-23T06:48:43.155Z,-0.28
2023-01-23T06:51:09.899Z,-0.28
2023-01-23T06:53:36.567Z,-0.28
2023-01-23T06:56:05.822Z,-0.27
2023-01-23T06:58:33.758Z,-0.30
2023-01-23T07:01:08.137Z,-0.33
2023-01-23T07:03:34.754Z,-0.30
2023-01-23T07:06:07.122Z,-0.30
2023-01-23T07:08:35.100Z,-0.31
2023-01-23T07:11:02.433Z,-0.29
2023-01-23T07:13:29.703Z,-0.28
2023-01-23T07:15:56.470Z,-0.32
2023-01-23T07:18:23.856Z,-0.33
2023-01-23T07:20:50.872Z,-0.31
2023-01-23T07:23:17.593Z,-0.26
2023-01-23T07:25:44.632Z,-0.27
2023-01-23T07:28:11.343Z,-0.30
2023-01-23T07:30:38.216Z,-0.25
2023-01-23T07:33:05.277Z,-0.26
2023-01-23T07:35:32.253Z,-0.25
2023-01-23T07:37:58.891Z,-0.24
2023-01-23T07:40:25.652Z,-0.23
2023-01-23T07:42:52.260Z,-0.23
2023-01-23T07:45:18.930Z,-0.24
2023-01-23T07:47:45.773Z,-0.28
2023-01-23T07:50:13.560Z,-0.24
2023-01-23T07:52:40.348Z,-0.12
2023-01-23T07:55:07.265Z,-0.16
2023-01-23T07:57:36.766Z,-0.16
2023-01-23T08:00:04.521Z,-0.15
2023-01-23T08:02:31.493Z,-0.07
2023-01-23T08:04:58.116Z,-0.10
2023-01-23T08:07:24.840Z,-0.09
2023-01-23T08:09:51.479Z,-0.11
2023-01-23T08:12:18.149Z,-0.13
2023-01-23T08:14:44.714Z,-0.11
2023-01-23T08:17:11.410Z,-0.19
2023-01-23T08:19:37.969Z,-0.20
2023-01-23T08:22:05.080Z,-0.13
2023-01-23T08:24:32.287Z,-0.12
2023-01-23T08:26:59.221Z,-0.10
2023-01-23T08:29:26.078Z,-0.11
2023-01-23T08:31:55.047Z,-0.06
2023-01-23T08:34:24.035Z,-0.10
2023-01-23T08:36:50.812Z,-0.10
2023-01-23T08:39:18.147Z,-0.10
2023-01-23T08:41:44.796Z,-0.10
2023-01-23T08:44:12.061Z,-0.11
2023-01-23T08:46:39.162Z,-0.10
2023-01-23T08:49:05.759Z,-0.09
2023-01-23T08:51:32.432Z,-0.15
2023-01-23T08:53:59.081Z,-0.04
2023-01-23T08:56:26.139Z,-0.05
2023-01-23T08:58:53.232Z,-0.03
2023-01-23T09:01:25.240Z,-0.06
2023-01-23T09:03:52.793Z,0.04
2023-01-23T09:06:22.910Z,0.00
2023-01-23T09:08:49.779Z,0.02
2023-01-23T09:11:17.380Z,0.10
2023-01-23T09:13:48.656Z,0.10
2023-01-23T09:16:15.771Z,0.09
2023-01-23T09:18:42.821Z,0.08
2023-01-23T09:21:12.879Z,0.08
2023-01-23T09:23:39.937Z,0.14
2023-01-23T09:26:12.068Z,0.12
2023-01-23T09:28:42.566Z,0.09
2023-01-23T09:31:11.865Z,0.07
2023-01-23T09:33:39.008Z,0.13
2023-01-23T09:36:06.013Z,0.17
2023-01-23T09:38:34.253Z,0.22
2023-01-23T09:41:14.159Z,0.28
2023-01-23T09:44:02.307Z,0.22
2023-01-23T09:46:46.941Z,0.27
2023-01-23T09:49:48.781Z,0.25
2023-01-23T09:52:20.694Z,0.25
2023-01-23T09:54:55.833Z,0.22
2023-01-23T09:57:25.092Z,0.18
2023-01-23T10:00:12.700Z,0.22
2023-01-23T10:02:43.662Z,0.28
2023-01-23T10:05:16.344Z,0.31
2023-01-23T10:07:49.633Z,0.35
2023-01-23T10:10:25.953Z,0.35
2023-01-23T10:13:11.508Z,0.31
2023-01-23T10:15:59.215Z,0.32
2023-01-23T10:18:47.722Z,0.35
2023-01-23T10:21:29.266Z,0.36
2023-01-23T10:24:19.216Z,0.38
2023-01-23T10:26:47.727Z,0.41
2023-01-23T10:29:26.732Z,0.33
2023-01-23T10:31:58.687Z,0.29
2023-01-23T10:34:35.459Z,0.31
2023-01-23T10:37:14.343Z,0.33
2023-01-23T10:39:57.837Z,0.34
2023-01-23T10:42:26.772Z,0.37
2023-01-23T10:44:54.047Z,0.35
2023-01-23T10:47:43.230Z,0.39
2023-01-23T10:50:11.242Z,0.46
2023-01-23T10:52:42.386Z,0.50
2023-01-23T10:55:31.414Z,0.49
2023-01-23T10:58:03.188Z,0.51
2023-01-23T11:00:39.796Z,0.46
2023-01-23T11:03:26.492Z,0.44
2023-01-23T11:06:07.146Z,0.51
2023-01-23T11:08:40.476Z,0.59
2023-01-23T11:11:16.118Z,0.57
2023-01-23T11:13:44.496Z,0.59
2023-01-23T11:16:18.686Z,0.65
2023-01-23T11:19:08.016Z,0.61
2023-01-23T11:21:57.887Z,0.64
2023-01-23T11:24:41.347Z,0.67
2023-01-23T11:27:19.351Z,0.71
2023-01-23T11:30:25.916Z,0.70
2023-01-23T11:32:59.322Z,0.61
2023-01-23T11:35:58.197Z,0.56
2023-01-23T11:38:31.297Z,0.60
2023-01-23T11:40:58.093Z,0.61
2023-01-23T11:43:24.789Z,0.63
2023-01-23T11:46:25.110Z,0.59
2023-01-23T11:49:10.227Z,0.61
2023-01-23T11:52:01.032Z,0.61
2023-01-23T11:55:25.607Z,0.56
2023-01-23T11:58:14.350Z,0.49
2023-01-23T12:01:05.448Z,0.50
2023-01-23T12:04:05.765Z,0.46
2023-01-23T12:06:41.172Z,0.48
2023-01-23T12:09:16.017Z,0.43
2023-01-23T12:12:14.832Z,0.41
2023-01-23T12:15:00.775Z,0.40
2023-01-23T12:17:47.679Z,0.40
2023-01-23T12:20:23.587Z,0.44
2023-01-23T12:23:08.219Z,0.42
2023-01-23T12:25:37.603Z,0.37
2023-01-23T12:28:10.299Z,0.36
2023-01-23T12:30:42.917Z,0.34
2023-01-23T12:33:38.357Z,0.35
2023-01-23T12:36:23.697Z,0.35
2023-01-23T12:38:56.282Z,0.34
2023-01-23T12:41:52.706Z,0.37
2023-01-23T12:44:34.169Z,0.36
2023-01-23T12:47:11.109Z,0.40
2023-01-23T12:49:46.896Z,0.42
2023-01-23T12:52:25.865Z,0.37
2023-01-23T12:55:20.388Z,0.34
2023-01-23T12:57:59.542Z,0.32
2023-01-23T13:01:02.371Z,0.39
2023-01-23T13:03:55.062Z,0.37
2023-01-23T13:06:34.947Z,0.35
2023-01-23T13:09:22.435Z,0.40
2023-01-23T13:12:21.675Z,0.31
2023-01-23T13:15:14.442Z,0.35
2023-01-23T13:17:48.658Z,0.38
2023-01-23T13:20:42.788Z,0.37
2023-01-23T13:23:30.408Z,0.32
2023-01-23T13:26:12.264Z,0.36
2023-01-23T13:29:04.783Z,0.26
2023-01-23T13:31:47.068Z,0.30
2023-01-23T13:34:17.070Z,0.28
2023-01-23T13:36:45.776Z,0.22
2023-01-23T13:39:15.132Z,0.31
2023-01-23T13:41:41.749Z,0.31
2023-01-23T13:44:41.630Z,0.35
2023-01-23T14:22:44.096Z,0.44
2023-01-23T14:25:18.538Z,0.42
2023-01-23T14:27:53.719Z,0.49
2023-01-23T14:30:27.071Z,0.41
2023-01-23T14:32:54.433Z,0.40
2023-01-23T14:35:25.392Z,0.39
2023-01-23T14:37:54.236Z,0.43
2023-01-23T14:40:27.586Z,0.37
2023-01-23T14:43:01.301Z,0.33
2023-01-23T14:45:33.567Z,0.35
2023-01-23T14:48:08.761Z,0.31
2023-01-23T14:50:36.134Z,0.32
2023-01-23T14:53:11.967Z,0.34
2023-01-23T14:55:42.029Z,0.36
2023-01-23T14:58:25.303Z,0.38
2023-01-23T15:00:53.973Z,0.39
2023-01-23T15:03:44.539Z,0.33
2023-01-23T15:06:21.878Z,0.36
2023-01-23T15:08:49.980Z,0.43
2023-01-23T15:11:24.824Z,0.36
2023-01-23T15:14:01.516Z,0.38
2023-01-23T15:16:38.101Z,0.34
2023-01-23T15:19:16.534Z,0.29
2023-01-23T15:21:43.201Z,0.33
2023-01-23T15:24:09.886Z,0.35
2023-01-23T15:26:38.680Z,0.29
2023-01-23T15:29:08.321Z,0.32
2023-01-23T15:31:34.984Z,0.33
2023-01-23T15:34:17.111Z,0.32
2023-01-23T15:37:06.612Z,0.32
2023-01-23T15:39:55.772Z,0.30
2023-01-23T15:42:31.837Z,0.28
2023-01-23T15:45:01.527Z,0.28
2023-01-23T15:47:30.206Z,0.23
2023-01-23T15:50:01.442Z,0.17
2023-01-23T15:52:31.363Z,0.23
2023-01-23T15:55:04.300Z,0.21
2023-01-23T15:57:31.030Z,0.20
2023-01-23T15:59:57.670Z,0.22
2023-01-23T16:02:31.294Z,0.25
2023-01-23T16:05:00.909Z,0.22
2023-01-23T16:07:39.823Z,0.19
2023-01-23T16:10:20.316Z,0.19
2023-01-23T16:12:48.996Z,0.24
2023-01-23T16:15:20.113Z,0.28
2023-01-23T16:17:47.713Z,0.28
2023-01-23T16:20:22.132Z,0.22
2023-01-23T16:22:52.120Z,0.20
2023-01-23T16:25:38.276Z,0.21
2023-01-23T16:28:18.469Z,0.17
2023-01-23T16:30:46.075Z,0.17
2023-01-23T16:33:12.997Z,0.25
2023-01-23T16:35:40.293Z,0.25
2023-01-23T16:38:07.419Z,0.26
2023-01-23T16:40:34.575Z,0.28
2023-01-23T16:43:03.107Z,0.33
2023-01-23T16:45:32.317Z,0.30
2023-01-23T16:47:59.112Z,0.30
2023-01-23T16:50:38.096Z,0.30
2023-01-23T16:53:24.125Z,0.31
2023-01-23T16:55:54.359Z,0.36
2023-01-23T16:58:27.816Z,0.35
2023-01-23T17:01:01.136Z,0.32
2023-01-23T17:03:32.860Z,0.29
2023-01-23T17:05:59.877Z,0.36
2023-01-23T17:08:26.966Z,0.31
2023-01-23T17:11:02.368Z,0.27
2023-01-23T17:13:33.485Z,0.28
2023-01-23T17:16:01.232Z,0.26
2023-01-23T17:18:37.307Z,0.24
2023-01-23T17:21:05.773Z,0.30
2023-01-23T17:23:32.785Z,0.27
2023-01-23T17:26:01.323Z,0.35
2023-01-23T17:28:28.737Z,0.31
2023-01-23T17:30:58.244Z,0.27
2023-01-23T17:33:30.340Z,0.24
2023-01-23T17:35:57.639Z,0.31
2023-01-23T17:38:27.308Z,0.33
2023-01-23T17:40:54.003Z,0.31
2023-01-23T17:43:21.535Z,0.29
2023-01-23T17:45:51.389Z,0.28
2023-01-23T17:48:40.635Z,0.26
2023-01-23T17:51:16.001Z,0.29
2023-01-23T17:53:43.012Z,0.31
2023-01-23T17:56:09.967Z,0.32
2023-01-23T17:58:36.571Z,0.28
2023-01-23T18:01:03.320Z,0.26
2023-01-23T18:03:30.034Z,0.32
2023-01-23T18:05:56.676Z,0.31
2023-01-23T18:08:23.388Z,0.31
2023-01-23T18:10:56.362Z,0.34
2023-01-23T18:13:33.137Z,0.37
2023-01-23T18:16:11.647Z,0.32
2023-01-23T18:18:40.471Z,0.38
2023-01-23T18:21:14.072Z,0.38
2023-01-23T18:23:41.182Z,0.45
2023-01-23T18:26:37.951Z,0.34
2023-01-23T18:29:10.313Z,0.42
2023-01-23T18:32:15.198Z,0.37
2023-01-23T18:35:14.255Z,0.39
2023-01-23T18:37:43.855Z,0.36
2023-01-23T18:40:37.120Z,0.40
2023-01-23T18:43:34.144Z,0.34
2023-01-23T18:46:01.047Z,0.39
2023-01-23T18:48:28.011Z,0.41
2023-01-23T18:51:00.440Z,0.39
2023-01-23T18:53:44.798Z,0.37
2023-01-23T18:56:25.699Z,0.44
2023-01-23T18:59:19.343Z,0.35
2023-01-23T19:01:55.299Z,0.44
2023-01-23T19:04:38.667Z,0.40
2023-01-23T19:07:16.022Z,0.43
2023-01-23T19:09:46.557Z,0.37
2023-01-23T19:12:41.601Z,0.37
2023-01-23T19:15:16.313Z,0.41
2023-01-23T19:17:45.962Z,0.39
2023-01-23T19:20:36.504Z,0.36
2023-01-23T19:23:17.285Z,0.42
2023-01-23T19:25:47.924Z,0.38
2023-01-23T19:28:15.910Z,0.42
2023-01-23T19:30:43.423Z,0.35
2023-01-23T19:33:18.400Z,0.34
2023-01-23T19:35:46.087Z,0.34
2023-01-23T19:38:12.969Z,0.39
2023-01-23T19:40:40.082Z,0.41
2023-01-23T19:43:14.516Z,0.37
2023-01-23T19:45:41.915Z,0.38
2023-01-23T19:48:09.173Z,0.36
2023-01-23T19:50:36.324Z,0.38
2023-01-23T19:53:04.870Z,0.47
2023-01-23T19:55:34.495Z,0.44
2023-01-23T19:58:01.274Z,0.47
2023-01-23T20:00:30.912Z,0.44
2023-01-23T20:02:58.057Z,0.44
2023-01-23T20:05:25.549Z,0.42
2023-01-23T20:07:53.899Z,0.44
2023-01-23T20:10:20.978Z,0.38
2023-01-23T20:12:52.610Z,0.35
2023-01-23T20:15:22.402Z,0.46
2023-01-23T20:17:49.661Z,0.40
2023-01-23T20:20:16.633Z,0.38
2023-01-23T20:22:43.672Z,0.37
2023-01-23T20:25:16.559Z,0.30
2023-01-23T20:27:43.382Z,0.32
2023-01-23T20:30:20.318Z,0.34
2023-01-23T20:32:47.311Z,0.34
2023-01-23T20:35:13.923Z,0.32
2023-01-23T20:37:40.568Z,0.39
2023-01-23T20:40:09.096Z,0.37
2023-01-23T20:42:35.724Z,0.34
2023-01-23T20:45:02.449Z,0.41
2023-01-23T20:47:29.089Z,0.39
2023-01-23T20:49:55.669Z,0.31
2023-01-23T20:52:40.735Z,0.42
2023-01-23T20:55:07.537Z,0.44
2023-01-23T20:57:53.024Z,0.42
2023-01-23T21:00:19.872Z,0.40
2023-01-23T21:02:46.583Z,0.43
2023-01-23T21:05:13.251Z,0.42
2023-01-23T21:07:39.910Z,0.40
2023-01-23T21:10:06.816Z,0.42
2023-01-23T21:12:33.469Z,0.37
2023-01-23T21:15:00.955Z,0.36
2023-01-23T21:17:27.600Z,0.35
2023-01-23T21:19:54.180Z,0.39
2023-01-23T21:22:20.931Z,0.39
2023-01-23T21:24:47.538Z,0.38
2023-01-23T21:27:14.126Z,0.40
2023-01-23T21:29:40.803Z,0.40
2023-01-23T21:32:07.485Z,0.41
2023-01-23T21:34:34.226Z,0.42
2023-01-23T21:37:00.957Z,0.46
2023-01-23T21:39:27.611Z,0.39
2023-01-23T21:41:54.186Z,0.37
2023-01-23T21:44:20.808Z,0.41
2023-01-23T21:46:47.438Z,0.38
2023-01-23T21:49:14.009Z,0.39
2023-01-23T21:51:40.914Z,0.42
2023-01-23T21:54:07.628Z,0.48
2023-01-23T21:56:34.328Z,0.46
2023-01-23T21:59:01.364Z,0.48
2023-01-23T22:01:44.644Z,0.47
2023-01-23T22:04:18.459Z,0.44
2023-01-23T22:06:45.861Z,0.44
2023-01-23T22:09:18.021Z,0.44
2023-01-23T22:11:45.189Z,0.37
2023-01-23T22:14:12.142Z,0.39
2023-01-23T22:16:54.593Z,0.36
2023-01-23T22:19:25.609Z,0.40
2023-01-23T22:21:55.924Z,0.43
2023-01-23T22:24:23.028Z,0.48
2023-01-23T22:26:49.696Z,0.46
2023-01-23T22:29:16.325Z,0.46
2023-01-23T22:31:43.558Z,0.47
2023-01-23T22:34:10.585Z,0.38
2023-01-23T22:36:37.499Z,0.39
2023-01-23T22:39:04.342Z,0.42
2023-01-23T22:41:31.043Z,0.41
2023-01-23T22:43:59.419Z,0.44
2023-01-23T22:46:26.824Z,0.45
2023-01-23T22:48:53.658Z,0.44
2023-01-23T22:51:24.607Z,0.41
2023-01-23T22:53:52.723Z,0.42
2023-01-23T22:56:19.409Z,0.46
2023-01-23T22:58:47.825Z,0.49
2023-01-23T23:01:14.929Z,0.49
2023-01-23T23:03:41.955Z,0.46
2023-01-23T23:06:11.760Z,0.41
2023-01-23T23:08:38.817Z,0.42
2023-01-23T23:11:08.814Z,0.47
2023-01-23T23:13:37.911Z,0.45
2023-01-23T23:16:09.458Z,0.48
2023-01-23T23:18:38.284Z,0.46
2023-01-23T23:21:11.345Z,0.47
2023-01-23T23:23:38.527Z,0.47
2023-01-23T23:26:06.386Z,0.47
2023-01-23T23:28:34.041Z,0.49
2023-01-23T23:31:01.017Z,0.47
2023-01-23T23:33:28.239Z,0.50
2023-01-23T23:35:54.911Z,0.42
2023-01-23T23:38:21.937Z,0.47
2023-01-23T23:41:03.371Z,0.44
2023-01-23T23:43:30.221Z,0.47
2023-01-23T23:45:59.724Z,0.49
2023-01-23T23:48:28.304Z,0.49
2023-01-23T23:50:55.511Z,0.42
2023-01-23T23:53:22.904Z,0.43
2023-01-23T23:55:49.757Z,0.47
2023-01-23T23:58:16.804Z,0.47
